sensor_id;sensor_type;location;lat;lon;timestamp;temperature;humidity
21559;DHT22;10940;48.890;8.240;2022-09-27T00:00:59;11.10;99.90
21559;DHT22;10940;48.890;8.240;2022-09-27T00:03:26;11.00;99.90
21559;DHT22;10940;48.890;8.240;2022-09-27T00:06:07;11.00;99.90
21559;DHT22;10940;48.890;8.240;2022-09-27T00:08:34;11.00;99.90
21559;DHT22;10940;48.890;8.240;2022-09-27T00:11:05;11.10;99.90
21559;DHT22;10940;48.890;8.240;2022-09-27T00:13:32;11.10;99.90
21559;DHT22;10940;48.890;8.240;2022-09-27T00:15:58;11.00;99.90
21559;DHT22;10940;48.890;8.240;2022-09-27T00:18:25;11.10;99.90
21559;DHT22;10940;48.890;8.240;2022-09-27T00:20:51;11.10;99.90
21559;DHT22;10940;48.890;8.240;2022-09-27T00:23:17;11.10;99.90
21559;DHT22;10940;48.890;8.240;2022-09-27T00:25:56;11.10;99.90
21559;DHT22;10940;48.890;8.240;2022-09-27T00:28:22;11.10;99.90
21559;DHT22;10940;48.890;8.240;2022-09-27T00:30:48;11.10;99.90
21559;DHT22;10940;48.890;8.240;2022-09-27T00:33:14;11.10;99.90
21559;DHT22;10940;48.890;8.240;2022-09-27T00:35:39;11.10;99.90
21559;DHT22;10940;48.890;8.240;2022-09-27T00:38:05;11.10;99.90
21559;DHT22;10940;48.890;8.240;2022-09-27T00:40:31;11.10;99.90
21559;DHT22;10940;48.890;8.240;2022-09-27T00:42:57;11.10;99.90
21559;DHT22;10940;48.890;8.240;2022-09-27T00:45:22;11.10;99.90
21559;DHT22;10940;48.890;8.240;2022-09-27T00:47:57;11.10;99.90
21559;DHT22;10940;48.890;8.240;2022-09-27T00:50:38;11.20;99.90
21559;DHT22;10940;48.890;8.240;2022-09-27T00:53:09;11.20;99.90
21559;DHT22;10940;48.890;8.240;2022-09-27T00:55:47;11.20;99.90
21559;DHT22;10940;48.890;8.240;2022-09-27T00:58:14;11.20;99.90
21559;DHT22;10940;48.890;8.240;2022-09-27T01:00:44;11.20;99.90
21559;DHT22;10940;48.890;8.240;2022-09-27T01:03:24;11.20;99.90
21559;DHT22;10940;48.890;8.240;2022-09-27T01:05:52;11.20;99.90
21559;DHT22;10940;48.890;8.240;2022-09-27T01:08:18;11.20;99.90
21559;DHT22;10940;48.890;8.240;2022-09-27T01:10:57;11.20;99.90
21559;DHT22;10940;48.890;8.240;2022-09-27T01:14:16;11.10;99.90
21559;DHT22;10940;48.890;8.240;2022-09-27T01:16:45;11.10;99.90
21559;DHT22;10940;48.890;8.240;2022-09-27T01:22:20;11.00;99.90
21559;DHT22;10940;48.890;8.240;2022-09-27T01:27:51;11.00;99.90
21559;DHT22;10940;48.890;8.240;2022-09-27T01:30:21;11.00;99.90
21559;DHT22;10940;48.890;8.240;2022-09-27T01:35:40;10.90;99.90
21559;DHT22;10940;48.890;8.240;2022-09-27T01:41:05;10.90;99.90
21559;DHT22;10940;48.890;8.240;2022-09-27T01:43:45;10.80;99.90
21559;DHT22;10940;48.890;8.240;2022-09-27T01:46:20;10.80;99.90
21559;DHT22;10940;48.890;8.240;2022-09-27T01:48:49;10.80;99.90
21559;DHT22;10940;48.890;8.240;2022-09-27T01:53:49;10.80;99.90
21559;DHT22;10940;48.890;8.240;2022-09-27T01:56:21;10.80;99.90
21559;DHT22;10940;48.890;8.240;2022-09-27T01:58:56;10.70;99.90
21559;DHT22;10940;48.890;8.240;2022-09-27T02:01:23;10.70;99.90
21559;DHT22;10940;48.890;8.240;2022-09-27T02:03:52;10.70;99.90
21559;DHT22;10940;48.890;8.240;2022-09-27T02:06:27;10.70;99.90
21559;DHT22;10940;48.890;8.240;2022-09-27T02:09:11;10.70;99.90
21559;DHT22;10940;48.890;8.240;2022-09-27T02:11:40;10.70;99.90
21559;DHT22;10940;48.890;8.240;2022-09-27T02:16:51;10.80;99.90
21559;DHT22;10940;48.890;8.240;2022-09-27T02:19:42;10.80;99.90
21559;DHT22;10940;48.890;8.240;2022-09-27T02:22:35;10.70;99.90
21559;DHT22;10940;48.890;8.240;2022-09-27T02:25:16;10.80;99.90
21559;DHT22;10940;48.890;8.240;2022-09-27T02:30:38;10.80;99.90
21559;DHT22;10940;48.890;8.240;2022-09-27T02:33:04;10.90;99.90
21559;DHT22;10940;48.890;8.240;2022-09-27T02:35:34;10.80;99.90
21559;DHT22;10940;48.890;8.240;2022-09-27T02:38:00;10.70;99.90
21559;DHT22;10940;48.890;8.240;2022-09-27T02:40:31;10.80;99.90
21559;DHT22;10940;48.890;8.240;2022-09-27T02:42:57;10.80;99.90
21559;DHT22;10940;48.890;8.240;2022-09-27T02:45:29;10.90;99.90
21559;DHT22;10940;48.890;8.240;2022-09-27T02:48:35;10.80;99.90
21559;DHT22;10940;48.890;8.240;2022-09-27T02:57:00;10.80;99.90
21559;DHT22;10940;48.890;8.240;2022-09-27T03:02:23;10.80;99.90
21559;DHT22;10940;48.890;8.240;2022-09-27T03:04:52;10.80;99.90
21559;DHT22;10940;48.890;8.240;2022-09-27T03:07:20;10.80;99.90
21559;DHT22;10940;48.890;8.240;2022-09-27T03:09:48;10.80;99.90
21559;DHT22;10940;48.890;8.240;2022-09-27T03:12:16;10.80;99.90
21559;DHT22;10940;48.890;8.240;2022-09-27T03:14:47;10.80;99.90
21559;DHT22;10940;48.890;8.240;2022-09-27T03:17:13;10.80;99.90
21559;DHT22;10940;48.890;8.240;2022-09-27T03:19:39;10.80;99.90
21559;DHT22;10940;48.890;8.240;2022-09-27T03:22:04;10.70;99.90
21559;DHT22;10940;48.890;8.240;2022-09-27T03:24:30;10.70;99.90
21559;DHT22;10940;48.890;8.240;2022-09-27T03:26:55;10.80;99.90
21559;DHT22;10940;48.890;8.240;2022-09-27T03:29:21;10.70;99.90
21559;DHT22;10940;48.890;8.240;2022-09-27T03:31:46;10.70;99.90
21559;DHT22;10940;48.890;8.240;2022-09-27T03:34:12;10.60;99.90
21559;DHT22;10940;48.890;8.240;2022-09-27T03:36:38;10.70;99.90
21559;DHT22;10940;48.890;8.240;2022-09-27T03:39:03;10.70;99.90
21559;DHT22;10940;48.890;8.240;2022-09-27T03:41:29;10.70;99.90
21559;DHT22;10940;48.890;8.240;2022-09-27T03:43:54;10.70;99.90
21559;DHT22;10940;48.890;8.240;2022-09-27T03:46:24;10.70;99.90
21559;DHT22;10940;48.890;8.240;2022-09-27T03:48:50;10.70;99.90
21559;DHT22;10940;48.890;8.240;2022-09-27T03:51:16;10.70;99.90
21559;DHT22;10940;48.890;8.240;2022-09-27T03:53:42;10.70;99.90
21559;DHT22;10940;48.890;8.240;2022-09-27T03:56:08;10.70;99.90
21559;DHT22;10940;48.890;8.240;2022-09-27T03:58:34;10.80;99.90
21559;DHT22;10940;48.890;8.240;2022-09-27T04:00:59;10.70;99.90
21559;DHT22;10940;48.890;8.240;2022-09-27T04:03:25;10.70;99.90
21559;DHT22;10940;48.890;8.240;2022-09-27T04:05:52;10.70;99.90
21559;DHT22;10940;48.890;8.240;2022-09-27T04:08:18;10.70;99.90
21559;DHT22;10940;48.890;8.240;2022-09-27T04:10:45;10.70;99.90
21559;DHT22;10940;48.890;8.240;2022-09-27T04:13:10;10.80;99.90
21559;DHT22;10940;48.890;8.240;2022-09-27T04:15:36;10.70;99.90
21559;DHT22;10940;48.890;8.240;2022-09-27T04:18:04;10.70;99.90
21559;DHT22;10940;48.890;8.240;2022-09-27T04:20:29;10.70;99.90
21559;DHT22;10940;48.890;8.240;2022-09-27T04:22:55;10.70;99.90
21559;DHT22;10940;48.890;8.240;2022-09-27T04:25:21;10.70;99.90
21559;DHT22;10940;48.890;8.240;2022-09-27T04:27:46;10.60;99.90
21559;DHT22;10940;48.890;8.240;2022-09-27T04:30:13;10.60;99.90
21559;DHT22;10940;48.890;8.240;2022-09-27T04:32:43;10.60;99.90
21559;DHT22;10940;48.890;8.240;2022-09-27T04:35:10;10.60;99.90
21559;DHT22;10940;48.890;8.240;2022-09-27T04:37:55;10.60;99.90
21559;DHT22;10940;48.890;8.240;2022-09-27T04:40:22;10.60;99.90
21559;DHT22;10940;48.890;8.240;2022-09-27T04:42:48;10.60;99.90
21559;DHT22;10940;48.890;8.240;2022-09-27T04:45:14;10.60;99.90
21559;DHT22;10940;48.890;8.240;2022-09-27T04:47:44;10.60;99.90
21559;DHT22;10940;48.890;8.240;2022-09-27T04:50:11;10.60;99.90
21559;DHT22;10940;48.890;8.240;2022-09-27T04:52:37;10.60;99.90
21559;DHT22;10940;48.890;8.240;2022-09-27T04:55:03;10.60;99.90
21559;DHT22;10940;48.890;8.240;2022-09-27T04:57:29;10.60;99.90
21559;DHT22;10940;48.890;8.240;2022-09-27T04:59:55;10.60;99.90
21559;DHT22;10940;48.890;8.240;2022-09-27T05:02:20;10.60;99.90
21559;DHT22;10940;48.890;8.240;2022-09-27T05:04:46;10.70;99.90
21559;DHT22;10940;48.890;8.240;2022-09-27T05:07:12;10.60;99.90
21559;DHT22;10940;48.890;8.240;2022-09-27T05:09:37;10.60;99.90
21559;DHT22;10940;48.890;8.240;2022-09-27T05:12:03;10.60;99.90
21559;DHT22;10940;48.890;8.240;2022-09-27T05:14:31;10.60;99.90
21559;DHT22;10940;48.890;8.240;2022-09-27T05:16:57;10.60;99.90
21559;DHT22;10940;48.890;8.240;2022-09-27T05:19:22;10.50;99.90
21559;DHT22;10940;48.890;8.240;2022-09-27T05:21:48;10.50;99.90
21559;DHT22;10940;48.890;8.240;2022-09-27T05:24:15;10.50;99.90
21559;DHT22;10940;48.890;8.240;2022-09-27T05:26:40;10.50;99.90
21559;DHT22;10940;48.890;8.240;2022-09-27T05:29:06;10.40;99.90
21559;DHT22;10940;48.890;8.240;2022-09-27T05:31:32;10.40;99.90
21559;DHT22;10940;48.890;8.240;2022-09-27T05:33:57;10.40;99.90
21559;DHT22;10940;48.890;8.240;2022-09-27T05:36:23;10.40;99.90
21559;DHT22;10940;48.890;8.240;2022-09-27T05:38:49;10.40;99.90
21559;DHT22;10940;48.890;8.240;2022-09-27T05:41:14;10.40;99.90
21559;DHT22;10940;48.890;8.240;2022-09-27T05:43:40;10.30;99.90
21559;DHT22;10940;48.890;8.240;2022-09-27T05:46:06;10.30;99.90
21559;DHT22;10940;48.890;8.240;2022-09-27T05:48:31;10.30;99.90
21559;DHT22;10940;48.890;8.240;2022-09-27T05:50:57;10.30;99.90
21559;DHT22;10940;48.890;8.240;2022-09-27T05:53:23;10.20;99.90
21559;DHT22;10940;48.890;8.240;2022-09-27T05:55:49;10.20;99.90
21559;DHT22;10940;48.890;8.240;2022-09-27T05:58:15;10.20;99.90
21559;DHT22;10940;48.890;8.240;2022-09-27T06:00:42;10.20;99.90
21559;DHT22;10940;48.890;8.240;2022-09-27T06:03:10;10.20;99.90
21559;DHT22;10940;48.890;8.240;2022-09-27T06:05:38;10.20;99.90
21559;DHT22;10940;48.890;8.240;2022-09-27T06:08:13;10.10;99.90
21559;DHT22;10940;48.890;8.240;2022-09-27T06:10:39;10.20;99.90
21559;DHT22;10940;48.890;8.240;2022-09-27T06:13:14;10.20;99.90
21559;DHT22;10940;48.890;8.240;2022-09-27T06:15:42;10.20;99.90
21559;DHT22;10940;48.890;8.240;2022-09-27T06:18:13;10.20;99.90
21559;DHT22;10940;48.890;8.240;2022-09-27T06:20:40;10.20;99.90
21559;DHT22;10940;48.890;8.240;2022-09-27T06:23:15;10.20;99.90
21559;DHT22;10940;48.890;8.240;2022-09-27T06:25:41;10.20;99.90
21559;DHT22;10940;48.890;8.240;2022-09-27T06:28:07;10.20;99.90
21559;DHT22;10940;48.890;8.240;2022-09-27T06:30:38;10.20;99.90
21559;DHT22;10940;48.890;8.240;2022-09-27T06:33:03;10.20;99.90
21559;DHT22;10940;48.890;8.240;2022-09-27T06:35:30;10.20;99.90
21559;DHT22;10940;48.890;8.240;2022-09-27T06:37:56;10.20;99.90
21559;DHT22;10940;48.890;8.240;2022-09-27T06:40:22;10.20;99.90
21559;DHT22;10940;48.890;8.240;2022-09-27T06:42:51;10.20;99.90
21559;DHT22;10940;48.890;8.240;2022-09-27T06:45:17;10.20;99.90
21559;DHT22;10940;48.890;8.240;2022-09-27T06:47:42;10.20;99.90
21559;DHT22;10940;48.890;8.240;2022-09-27T06:50:08;10.30;99.90
21559;DHT22;10940;48.890;8.240;2022-09-27T06:52:35;10.30;99.90
21559;DHT22;10940;48.890;8.240;2022-09-27T06:55:02;10.30;99.90
21559;DHT22;10940;48.890;8.240;2022-09-27T06:57:29;10.30;99.90
21559;DHT22;10940;48.890;8.240;2022-09-27T07:00:13;10.30;99.90
21559;DHT22;10940;48.890;8.240;2022-09-27T07:02:47;10.30;99.90
21559;DHT22;10940;48.890;8.240;2022-09-27T07:05:18;10.30;99.90
21559;DHT22;10940;48.890;8.240;2022-09-27T07:07:43;10.30;99.90
21559;DHT22;10940;48.890;8.240;2022-09-27T07:10:10;10.30;99.90
21559;DHT22;10940;48.890;8.240;2022-09-27T07:12:36;10.30;99.90
21559;DHT22;10940;48.890;8.240;2022-09-27T07:15:02;10.40;99.90
21559;DHT22;10940;48.890;8.240;2022-09-27T07:17:28;10.40;99.90
21559;DHT22;10940;48.890;8.240;2022-09-27T07:19:54;10.40;99.90
21559;DHT22;10940;48.890;8.240;2022-09-27T07:22:20;10.40;99.90
21559;DHT22;10940;48.890;8.240;2022-09-27T07:24:46;10.40;99.90
21559;DHT22;10940;48.890;8.240;2022-09-27T07:27:11;10.50;99.90
21559;DHT22;10940;48.890;8.240;2022-09-27T07:29:37;10.60;99.90
21559;DHT22;10940;48.890;8.240;2022-09-27T07:32:03;10.70;99.90
21559;DHT22;10940;48.890;8.240;2022-09-27T07:34:29;10.70;99.90
21559;DHT22;10940;48.890;8.240;2022-09-27T07:36:58;10.80;99.90
21559;DHT22;10940;48.890;8.240;2022-09-27T07:39:25;10.80;99.90
21559;DHT22;10940;48.890;8.240;2022-09-27T07:41:50;10.80;99.90
21559;DHT22;10940;48.890;8.240;2022-09-27T07:44:16;10.90;99.90
21559;DHT22;10940;48.890;8.240;2022-09-27T07:46:42;10.90;99.90
21559;DHT22;10940;48.890;8.240;2022-09-27T07:49:08;10.90;99.90
21559;DHT22;10940;48.890;8.240;2022-09-27T07:51:34;10.90;99.90
21559;DHT22;10940;48.890;8.240;2022-09-27T07:53:59;11.00;99.90
21559;DHT22;10940;48.890;8.240;2022-09-27T07:56:28;11.00;99.90
21559;DHT22;10940;48.890;8.240;2022-09-27T07:58:54;11.00;99.90
21559;DHT22;10940;48.890;8.240;2022-09-27T08:01:20;11.00;99.90
21559;DHT22;10940;48.890;8.240;2022-09-27T08:03:45;11.00;99.90
21559;DHT22;10940;48.890;8.240;2022-09-27T08:06:11;11.00;99.90
21559;DHT22;10940;48.890;8.240;2022-09-27T08:08:37;11.10;99.90
21559;DHT22;10940;48.890;8.240;2022-09-27T08:11:14;11.00;99.90
21559;DHT22;10940;48.890;8.240;2022-09-27T08:13:44;11.00;99.90
21559;DHT22;10940;48.890;8.240;2022-09-27T08:16:09;11.00;99.90
21559;DHT22;10940;48.890;8.240;2022-09-27T08:18:38;11.00;99.90
21559;DHT22;10940;48.890;8.240;2022-09-27T08:21:04;11.10;99.90
21559;DHT22;10940;48.890;8.240;2022-09-27T08:23:29;11.20;99.90
21559;DHT22;10940;48.890;8.240;2022-09-27T08:25:55;11.10;99.90
21559;DHT22;10940;48.890;8.240;2022-09-27T08:28:24;11.20;99.90
21559;DHT22;10940;48.890;8.240;2022-09-27T08:30:50;11.20;99.90
21559;DHT22;10940;48.890;8.240;2022-09-27T08:33:16;11.30;99.90
21559;DHT22;10940;48.890;8.240;2022-09-27T08:35:41;11.30;99.90
21559;DHT22;10940;48.890;8.240;2022-09-27T08:38:08;11.40;99.90
21559;DHT22;10940;48.890;8.240;2022-09-27T08:40:56;11.40;99.90
21559;DHT22;10940;48.890;8.240;2022-09-27T08:43:48;11.30;99.90
21559;DHT22;10940;48.890;8.240;2022-09-27T08:49:09;11.40;99.90
21559;DHT22;10940;48.890;8.240;2022-09-27T08:51:38;11.40;99.90
21559;DHT22;10940;48.890;8.240;2022-09-27T08:54:10;11.50;99.90
21559;DHT22;10940;48.890;8.240;2022-09-27T08:56:37;11.60;99.90
21559;DHT22;10940;48.890;8.240;2022-09-27T08:59:15;11.70;99.90
21559;DHT22;10940;48.890;8.240;2022-09-27T09:01:45;11.80;99.90
21559;DHT22;10940;48.890;8.240;2022-09-27T09:04:24;11.80;99.90
21559;DHT22;10940;48.890;8.240;2022-09-27T09:09:47;12.00;99.90
21559;DHT22;10940;48.890;8.240;2022-09-27T09:15:30;12.00;99.90
21559;DHT22;10940;48.890;8.240;2022-09-27T09:21:17;12.00;99.90
21559;DHT22;10940;48.890;8.240;2022-09-27T09:24:14;12.00;99.90
21559;DHT22;10940;48.890;8.240;2022-09-27T09:32:54;11.70;99.90
21559;DHT22;10940;48.890;8.240;2022-09-27T09:35:31;11.60;99.90
21559;DHT22;10940;48.890;8.240;2022-09-27T09:38:02;11.50;99.90
21559;DHT22;10940;48.890;8.240;2022-09-27T09:40:36;11.50;99.90
21559;DHT22;10940;48.890;8.240;2022-09-27T09:46:00;11.50;99.90
21559;DHT22;10940;48.890;8.240;2022-09-27T09:48:50;11.60;99.90
21559;DHT22;10940;48.890;8.240;2022-09-27T09:51:25;11.60;99.90
21559;DHT22;10940;48.890;8.240;2022-09-27T09:56:56;11.50;99.90
21559;DHT22;10940;48.890;8.240;2022-09-27T09:59:31;11.50;99.90
21559;DHT22;10940;48.890;8.240;2022-09-27T10:02:13;11.50;99.90
21559;DHT22;10940;48.890;8.240;2022-09-27T10:04:39;11.50;99.90
21559;DHT22;10940;48.890;8.240;2022-09-27T10:07:07;11.50;99.90
21559;DHT22;10940;48.890;8.240;2022-09-27T10:09:32;11.50;99.90
21559;DHT22;10940;48.890;8.240;2022-09-27T10:11:59;11.60;99.90
21559;DHT22;10940;48.890;8.240;2022-09-27T10:14:25;11.60;99.90
21559;DHT22;10940;48.890;8.240;2022-09-27T10:16:57;11.70;99.90
21559;DHT22;10940;48.890;8.240;2022-09-27T10:19:32;11.80;99.90
21559;DHT22;10940;48.890;8.240;2022-09-27T10:22:13;12.00;99.90
21559;DHT22;10940;48.890;8.240;2022-09-27T10:24:59;12.10;99.90
21559;DHT22;10940;48.890;8.240;2022-09-27T10:27:28;12.10;99.90
21559;DHT22;10940;48.890;8.240;2022-09-27T10:30:02;12.00;99.90
21559;DHT22;10940;48.890;8.240;2022-09-27T10:32:31;11.90;99.90
21559;DHT22;10940;48.890;8.240;2022-09-27T10:35:41;12.00;99.90
21559;DHT22;10940;48.890;8.240;2022-09-27T10:38:21;11.80;99.90
21559;DHT22;10940;48.890;8.240;2022-09-27T10:40:49;11.20;99.90
21559;DHT22;10940;48.890;8.240;2022-09-27T10:43:41;10.40;99.90
21559;DHT22;10940;48.890;8.240;2022-09-27T10:46:27;9.70;99.90
21559;DHT22;10940;48.890;8.240;2022-09-27T10:51:40;8.70;99.90
21559;DHT22;10940;48.890;8.240;2022-09-27T10:54:22;8.60;99.90
21559;DHT22;10940;48.890;8.240;2022-09-27T10:57:17;8.60;99.90
21559;DHT22;10940;48.890;8.240;2022-09-27T10:59:46;8.60;99.90
21559;DHT22;10940;48.890;8.240;2022-09-27T11:02:34;8.60;99.90
21559;DHT22;10940;48.890;8.240;2022-09-27T11:07:31;8.90;99.90
21559;DHT22;10940;48.890;8.240;2022-09-27T11:09:58;8.90;99.90
21559;DHT22;10940;48.890;8.240;2022-09-27T11:12:30;8.90;99.90
21559;DHT22;10940;48.890;8.240;2022-09-27T11:15:04;9.00;99.90
21559;DHT22;10940;48.890;8.240;2022-09-27T11:17:48;9.00;99.90
21559;DHT22;10940;48.890;8.240;2022-09-27T11:20:30;9.10;99.90
21559;DHT22;10940;48.890;8.240;2022-09-27T11:23:25;9.10;99.90
21559;DHT22;10940;48.890;8.240;2022-09-27T11:31:39;9.20;99.90
21559;DHT22;10940;48.890;8.240;2022-09-27T11:34:21;9.10;99.90
21559;DHT22;10940;48.890;8.240;2022-09-27T11:39:51;9.20;99.90
21559;DHT22;10940;48.890;8.240;2022-09-27T11:42:33;9.30;99.90
21559;DHT22;10940;48.890;8.240;2022-09-27T11:45:11;9.30;99.90
21559;DHT22;10940;48.890;8.240;2022-09-27T11:51:12;9.30;99.90
21559;DHT22;10940;48.890;8.240;2022-09-27T12:02:21;9.40;99.90
21559;DHT22;10940;48.890;8.240;2022-09-27T12:08:32;9.40;99.90
21559;DHT22;10940;48.890;8.240;2022-09-27T12:13:44;9.50;99.90
21559;DHT22;10940;48.890;8.240;2022-09-27T12:16:15;9.60;99.90
21559;DHT22;10940;48.890;8.240;2022-09-27T12:18:42;9.70;99.90
21559;DHT22;10940;48.890;8.240;2022-09-27T12:21:10;9.80;99.90
21559;DHT22;10940;48.890;8.240;2022-09-27T12:23:57;9.90;99.90
21559;DHT22;10940;48.890;8.240;2022-09-27T12:26:44;10.20;99.90
21559;DHT22;10940;48.890;8.240;2022-09-27T12:29:29;10.50;99.90
21559;DHT22;10940;48.890;8.240;2022-09-27T12:32:21;10.80;99.90
21559;DHT22;10940;48.890;8.240;2022-09-27T12:35:13;11.00;99.90
21559;DHT22;10940;48.890;8.240;2022-09-27T12:38:53;11.10;99.90
21559;DHT22;10940;48.890;8.240;2022-09-27T12:40:55;11.10;99.90
21559;DHT22;10940;48.890;8.240;2022-09-27T12:43:25;11.10;99.90
21559;DHT22;10940;48.890;8.240;2022-09-27T12:48:46;11.00;99.90
21559;DHT22;10940;48.890;8.240;2022-09-27T12:51:20;11.00;99.90
21559;DHT22;10940;48.890;8.240;2022-09-27T12:53:52;10.90;99.90
21559;DHT22;10940;48.890;8.240;2022-09-27T12:59:44;10.70;99.90
21559;DHT22;10940;48.890;8.240;2022-09-27T13:05:17;10.70;99.90
21559;DHT22;10940;48.890;8.240;2022-09-27T13:13:00;10.70;99.90
21559;DHT22;10940;48.890;8.240;2022-09-27T13:15:34;10.80;99.90
21559;DHT22;10940;48.890;8.240;2022-09-27T13:18:03;10.90;99.90
21559;DHT22;10940;48.890;8.240;2022-09-27T13:20:37;10.90;99.90
21559;DHT22;10940;48.890;8.240;2022-09-27T13:25:57;10.90;99.90
21559;DHT22;10940;48.890;8.240;2022-09-27T13:30:54;10.70;99.90
21559;DHT22;10940;48.890;8.240;2022-09-27T13:41:19;10.60;99.90
21559;DHT22;10940;48.890;8.240;2022-09-27T13:46:21;10.60;99.90
21559;DHT22;10940;48.890;8.240;2022-09-27T13:48:50;10.60;99.90
21559;DHT22;10940;48.890;8.240;2022-09-27T13:51:33;10.50;99.90
21559;DHT22;10940;48.890;8.240;2022-09-27T13:54:02;10.50;99.90
21559;DHT22;10940;48.890;8.240;2022-09-27T13:59:22;10.50;99.90
21559;DHT22;10940;48.890;8.240;2022-09-27T14:02:10;10.50;99.90
21559;DHT22;10940;48.890;8.240;2022-09-27T14:04:46;10.50;99.90
21559;DHT22;10940;48.890;8.240;2022-09-27T14:07:16;10.50;99.90
21559;DHT22;10940;48.890;8.240;2022-09-27T14:09:46;10.50;99.90
21559;DHT22;10940;48.890;8.240;2022-09-27T14:12:19;10.50;99.90
21559;DHT22;10940;48.890;8.240;2022-09-27T14:14:45;10.60;99.90
21559;DHT22;10940;48.890;8.240;2022-09-27T14:17:14;10.90;99.90
21559;DHT22;10940;48.890;8.240;2022-09-27T14:19:42;11.00;99.90
21559;DHT22;10940;48.890;8.240;2022-09-27T14:22:17;11.10;99.90
21559;DHT22;10940;48.890;8.240;2022-09-27T14:24:47;11.40;99.90
21559;DHT22;10940;48.890;8.240;2022-09-27T14:27:14;11.60;99.90
21559;DHT22;10940;48.890;8.240;2022-09-27T14:30:21;11.90;99.90
21559;DHT22;10940;48.890;8.240;2022-09-27T14:32:52;12.10;99.90
21559;DHT22;10940;48.890;8.240;2022-09-27T14:35:27;12.10;99.90
21559;DHT22;10940;48.890;8.240;2022-09-27T14:38:29;12.10;99.90
21559;DHT22;10940;48.890;8.240;2022-09-27T14:41:01;12.10;99.90
21559;DHT22;10940;48.890;8.240;2022-09-27T14:43:28;12.00;99.90
21559;DHT22;10940;48.890;8.240;2022-09-27T14:45:59;12.10;99.90
21559;DHT22;10940;48.890;8.240;2022-09-27T14:48:30;12.20;99.90
21559;DHT22;10940;48.890;8.240;2022-09-27T14:51:19;12.30;99.90
21559;DHT22;10940;48.890;8.240;2022-09-27T14:53:54;12.30;99.90
21559;DHT22;10940;48.890;8.240;2022-09-27T14:56:28;12.20;99.90
21559;DHT22;10940;48.890;8.240;2022-09-27T14:59:34;12.10;99.90
21559;DHT22;10940;48.890;8.240;2022-09-27T15:02:03;12.00;99.90
21559;DHT22;10940;48.890;8.240;2022-09-27T15:04:34;11.90;99.90
21559;DHT22;10940;48.890;8.240;2022-09-27T15:07:01;11.70;99.90
21559;DHT22;10940;48.890;8.240;2022-09-27T15:09:27;11.60;99.90
21559;DHT22;10940;48.890;8.240;2022-09-27T15:11:56;11.50;99.90
21559;DHT22;10940;48.890;8.240;2022-09-27T15:14:25;11.40;99.90
21559;DHT22;10940;48.890;8.240;2022-09-27T15:16:54;11.30;99.90
21559;DHT22;10940;48.890;8.240;2022-09-27T15:19:28;11.20;99.90
21559;DHT22;10940;48.890;8.240;2022-09-27T15:21:55;11.20;99.90
21559;DHT22;10940;48.890;8.240;2022-09-27T15:24:51;11.20;99.90
21559;DHT22;10940;48.890;8.240;2022-09-27T15:27:20;11.20;99.90
21559;DHT22;10940;48.890;8.240;2022-09-27T15:29:54;11.30;99.90
21559;DHT22;10940;48.890;8.240;2022-09-27T15:32:26;11.30;99.90
21559;DHT22;10940;48.890;8.240;2022-09-27T15:34:53;11.40;99.90
21559;DHT22;10940;48.890;8.240;2022-09-27T15:37:24;11.50;99.90
21559;DHT22;10940;48.890;8.240;2022-09-27T15:39:50;11.50;99.90
21559;DHT22;10940;48.890;8.240;2022-09-27T15:42:16;11.40;99.90
21559;DHT22;10940;48.890;8.240;2022-09-27T15:44:52;11.40;99.90
21559;DHT22;10940;48.890;8.240;2022-09-27T15:49:57;11.40;99.90
21559;DHT22;10940;48.890;8.240;2022-09-27T15:52:40;11.40;99.90
21559;DHT22;10940;48.890;8.240;2022-09-27T15:55:12;11.30;99.90
21559;DHT22;10940;48.890;8.240;2022-09-27T15:57:39;11.20;99.90
21559;DHT22;10940;48.890;8.240;2022-09-27T16:00:09;11.20;99.90
21559;DHT22;10940;48.890;8.240;2022-09-27T16:02:36;11.20;99.90
21559;DHT22;10940;48.890;8.240;2022-09-27T16:05:02;11.10;99.90
21559;DHT22;10940;48.890;8.240;2022-09-27T16:07:28;11.10;99.90
21559;DHT22;10940;48.890;8.240;2022-09-27T16:09:53;11.10;99.90
21559;DHT22;10940;48.890;8.240;2022-09-27T16:12:20;11.00;99.90
21559;DHT22;10940;48.890;8.240;2022-09-27T16:14:46;11.10;99.90
21559;DHT22;10940;48.890;8.240;2022-09-27T16:17:12;11.00;99.90
21559;DHT22;10940;48.890;8.240;2022-09-27T16:19:38;11.10;99.90
21559;DHT22;10940;48.890;8.240;2022-09-27T16:22:04;11.00;99.90
21559;DHT22;10940;48.890;8.240;2022-09-27T16:24:30;11.00;99.90
21559;DHT22;10940;48.890;8.240;2022-09-27T16:26:57;10.90;99.90
21559;DHT22;10940;48.890;8.240;2022-09-27T16:29:22;10.80;99.90
21559;DHT22;10940;48.890;8.240;2022-09-27T16:31:48;10.70;99.90
21559;DHT22;10940;48.890;8.240;2022-09-27T16:34:15;10.60;99.90
21559;DHT22;10940;48.890;8.240;2022-09-27T16:36:41;10.60;99.90
21559;DHT22;10940;48.890;8.240;2022-09-27T16:39:08;10.60;99.90
21559;DHT22;10940;48.890;8.240;2022-09-27T16:41:35;10.50;99.90
21559;DHT22;10940;48.890;8.240;2022-09-27T16:44:09;10.40;99.90
21559;DHT22;10940;48.890;8.240;2022-09-27T16:46:39;10.50;99.90
21559;DHT22;10940;48.890;8.240;2022-09-27T16:49:05;10.50;99.90
21559;DHT22;10940;48.890;8.240;2022-09-27T16:51:51;10.40;99.90
21559;DHT22;10940;48.890;8.240;2022-09-27T16:54:27;10.40;99.90
21559;DHT22;10940;48.890;8.240;2022-09-27T16:56:54;10.40;99.90
21559;DHT22;10940;48.890;8.240;2022-09-27T16:59:20;10.40;99.90
21559;DHT22;10940;48.890;8.240;2022-09-27T17:01:46;10.50;99.90
21559;DHT22;10940;48.890;8.240;2022-09-27T17:04:12;10.40;99.90
21559;DHT22;10940;48.890;8.240;2022-09-27T17:06:38;10.50;99.90
21559;DHT22;10940;48.890;8.240;2022-09-27T17:09:04;10.50;99.90
21559;DHT22;10940;48.890;8.240;2022-09-27T17:11:30;10.50;99.90
21559;DHT22;10940;48.890;8.240;2022-09-27T17:13:55;10.50;99.90
21559;DHT22;10940;48.890;8.240;2022-09-27T17:16:22;10.50;99.90
21559;DHT22;10940;48.890;8.240;2022-09-27T17:18:48;10.40;99.90
21559;DHT22;10940;48.890;8.240;2022-09-27T17:21:14;10.40;99.90
21559;DHT22;10940;48.890;8.240;2022-09-27T17:23:40;10.40;99.90
21559;DHT22;10940;48.890;8.240;2022-09-27T17:26:11;10.40;99.90
21559;DHT22;10940;48.890;8.240;2022-09-27T17:28:38;10.40;99.90
21559;DHT22;10940;48.890;8.240;2022-09-27T17:31:09;10.40;99.90
21559;DHT22;10940;48.890;8.240;2022-09-27T17:33:39;10.40;99.90
21559;DHT22;10940;48.890;8.240;2022-09-27T17:36:10;10.30;99.90
21559;DHT22;10940;48.890;8.240;2022-09-27T17:38:37;10.30;99.90
21559;DHT22;10940;48.890;8.240;2022-09-27T17:41:06;10.30;99.90
21559;DHT22;10940;48.890;8.240;2022-09-27T17:43:33;10.30;99.90
21559;DHT22;10940;48.890;8.240;2022-09-27T17:46:05;10.20;99.90
21559;DHT22;10940;48.890;8.240;2022-09-27T17:48:31;10.10;99.90
21559;DHT22;10940;48.890;8.240;2022-09-27T17:51:22;10.10;99.90
21559;DHT22;10940;48.890;8.240;2022-09-27T17:53:49;10.10;99.90
21559;DHT22;10940;48.890;8.240;2022-09-27T17:56:15;10.10;99.90